Time;durP1;ratioP1;P1;durP2;ratioP2;P2;SDS_P1;SDS_P2;PMS_P1;PMS_P2;Temp;Humidity;BMP_temperature;BMP_pressure;BME280_temperature;BME280_humidity;BME280_pressure;Samples;Min_cycle;Max_cycle;Signal;HPM_P1;HPM_P2
2023/10/16 00:01:17;;;;;;;3.63;2.30;;;9.70;99.90;;;;;;4972725;28;20041;-77
2023/10/16 00:03:43;;;;;;;6.18;2.40;;;9.60;99.90;;;;;;4972055;28;20031;-79
2023/10/16 00:06:14;;;;;;;7.68;3.15;;;9.70;99.90;;;;;;4974403;28;20034;-87
2023/10/16 00:08:53;;;;;;;4.70;2.60;;;9.60;99.90;;;;;;4975767;28;20031;-80
2023/10/16 00:11:24;;;;;;;6.90;2.63;;;9.70;99.90;;;;;;4963392;28;20039;-85
2023/10/16 00:13:51;;;;;;;14.70;3.00;;;9.60;99.90;;;;;;4970947;28;20031;-82
2023/10/16 00:16:19;;;;;;;7.57;3.05;;;9.60;99.90;;;;;;4977005;28;20087;-82
2023/10/16 00:18:45;;;;;;;9.50;3.17;;;9.50;99.90;;;;;;4976874;28;20113;-81
2023/10/16 00:21:13;;;;;;;5.22;3.13;;;9.60;99.90;;;;;;4976372;28;20030;-82
2023/10/16 00:23:40;;;;;;;7.95;3.45;;;9.50;99.90;;;;;;4976306;28;20046;-85
2023/10/16 00:26:08;;;;;;;6.30;3.35;;;9.50;99.90;;;;;;4975495;28;20486;-86
2023/10/16 00:28:34;;;;;;;7.53;3.35;;;9.40;99.90;;;;;;4976303;28;20030;-85
2023/10/16 00:31:05;;;;;;;5.95;3.40;;;9.40;99.90;;;;;;4959095;28;20486;-87
2023/10/16 00:33:33;;;;;;;7.35;3.30;;;9.40;99.90;;;;;;4958785;28;20027;-87
2023/10/16 00:36:00;;;;;;;6.93;3.10;;;9.40;99.90;;;;;;4976928;28;20077;-85
2023/10/16 00:38:26;;;;;;;8.80;3.67;;;9.40;99.90;;;;;;4974483;28;20041;-84
2023/10/16 00:41:16;;;;;;;9.80;3.33;;;9.40;99.90;;;;;;4961104;28;20039;-87
2023/10/16 00:43:43;;;;;;;5.72;3.35;;;9.40;99.90;;;;;;4959286;28;20016;-86
2023/10/16 00:46:29;;;;;;;5.32;2.88;;;9.30;99.90;;;;;;4962618;28;20379;-79
2023/10/16 00:48:56;;;;;;;9.98;3.97;;;9.30;99.90;;;;;;4960776;28;20027;-84
2023/10/16 00:51:22;;;;;;;8.10;3.80;;;9.20;99.90;;;;;;4953888;28;20023;-81
2023/10/16 00:53:49;;;;;;;7.82;3.65;;;9.30;99.90;;;;;;4956761;28;20086;-78
2023/10/16 00:56:17;;;;;;;7.25;3.60;;;9.20;99.90;;;;;;4955069;28;20027;-86
2023/10/16 00:58:48;;;;;;;14.18;4.80;;;9.10;99.90;;;;;;4961167;28;20074;-80
2023/10/16 01:01:14;;;;;;;11.85;5.15;;;9.10;99.90;;;;;;4956689;28;20487;-87
2023/10/16 01:03:42;;;;;;;11.40;5.75;;;9.10;99.90;;;;;;4960315;28;20023;-86
2023/10/16 01:06:16;;;;;;;14.95;6.53;;;9.10;99.90;;;;;;4960308;28;20514;-85
2023/10/16 01:08:44;;;;;;;19.20;7.55;;;9.10;99.90;;;;;;4957119;28;20028;-87
2023/10/16 01:11:10;;;;;;;17.92;7.35;;;9.10;99.90;;;;;;4958448;28;20387;-85
2023/10/16 01:13:38;;;;;;;18.50;8.13;;;9.10;99.90;;;;;;4966191;28;20031;-86
2023/10/16 01:16:07;;;;;;;16.55;7.95;;;9.10;99.90;;;;;;4958996;28;20034;-84
2023/10/16 01:18:34;;;;;;;18.08;8.70;;;9.00;99.90;;;;;;4956904;28;20391;-84
2023/10/16 01:21:05;;;;;;;20.23;8.55;;;9.00;99.90;;;;;;4959464;28;20031;-82
2023/10/16 01:23:34;;;;;;;20.27;9.30;;;8.90;99.90;;;;;;4956681;28;20071;-87
2023/10/16 01:26:01;;;;;;;21.85;9.45;;;8.90;99.90;;;;;;4954656;28;20043;-88
2023/10/16 01:28:27;;;;;;;20.77;7.72;;;8.90;99.90;;;;;;4958391;28;20035;-80
2023/10/16 01:30:53;;;;;;;20.95;9.73;;;8.90;99.90;;;;;;4952663;28;20043;-77
2023/10/16 01:33:20;;;;;;;26.35;9.25;;;8.80;99.90;;;;;;4940284;28;20121;-84
2023/10/16 01:35:46;;;;;;;24.13;11.27;;;8.90;99.90;;;;;;4956508;28;20078;-85
2023/10/16 01:38:15;;;;;;;20.55;8.32;;;8.80;99.90;;;;;;4958466;28;20031;-80
2023/10/16 01:40:47;;;;;;;15.35;7.18;;;8.80;99.90;;;;;;4936462;28;20058;-79
2023/10/16 01:43:14;;;;;;;15.73;8.02;;;8.80;99.90;;;;;;4959312;28;20070;-85
2023/10/16 01:45:49;;;;;;;15.18;6.70;;;8.90;99.90;;;;;;4956690;28;20052;-86
2023/10/16 01:48:21;;;;;;;13.10;6.13;;;8.80;99.90;;;;;;4932259;28;20065;-87
2023/10/16 01:50:50;;;;;;;16.13;7.07;;;8.70;99.90;;;;;;4954613;28;20156;-86
2023/10/16 01:53:20;;;;;;;14.93;6.05;;;8.70;99.90;;;;;;4958258;28;20754;-86
2023/10/16 01:55:56;;;;;;;13.43;6.35;;;8.60;99.90;;;;;;4956264;28;20491;-85
2023/10/16 01:58:23;;;;;;;18.88;7.45;;;8.60;99.90;;;;;;4943178;28;20433;-85
2023/10/16 02:00:51;;;;;;;17.48;7.00;;;8.60;99.90;;;;;;4954148;28;20031;-83
2023/10/16 02:03:17;;;;;;;17.85;7.93;;;8.60;99.90;;;;;;4940647;28;20028;-80
2023/10/16 02:05:45;;;;;;;16.83;7.50;;;8.60;99.90;;;;;;4957008;28;20102;-82
2023/10/16 02:08:12;;;;;;;14.70;7.28;;;8.60;99.90;;;;;;4961049;28;20027;-84
2023/10/16 02:10:39;;;;;;;15.30;6.40;;;8.70;99.90;;;;;;4955741;28;20110;-80
2023/10/16 02:13:06;;;;;;;13.15;5.72;;;8.70;99.90;;;;;;4955753;28;20487;-82
2023/10/16 02:15:36;;;;;;;13.88;5.50;;;8.70;99.90;;;;;;4957088;28;20046;-85
2023/10/16 02:18:27;;;;;;;14.40;5.90;;;8.80;99.90;;;;;;4957479;28;20027;-87
2023/10/16 02:20:53;;;;;;;12.93;6.03;;;8.80;99.90;;;;;;4956365;28;20042;-86
2023/10/16 02:23:19;;;;;;;15.05;5.68;;;8.80;99.90;;;;;;4936464;28;20134;-82
2023/10/16 02:25:45;;;;;;;20.30;6.45;;;8.70;99.90;;;;;;4955958;28;20043;-84
2023/10/16 02:28:13;;;;;;;10.93;6.28;;;8.70;99.90;;;;;;4956297;28;20027;-80
2023/10/16 02:30:41;;;;;;;15.63;6.95;;;8.70;99.90;;;;;;4957200;28;20085;-81
2023/10/16 02:33:26;;;;;;;16.00;7.05;;;8.70;99.90;;;;;;4954526;28;20542;-85
2023/10/16 02:35:53;;;;;;;18.92;7.88;;;8.70;99.90;;;;;;4953337;28;20027;-83
2023/10/16 02:38:29;;;;;;;12.10;7.00;;;8.60;99.90;;;;;;4957525;28;20053;-84
2023/10/16 02:41:07;;;;;;;14.48;7.13;;;8.60;99.90;;;;;;4956607;28;20035;-84
2023/10/16 02:43:37;;;;;;;13.30;7.28;;;8.60;99.90;;;;;;4957402;28;20020;-77
2023/10/16 02:46:04;;;;;;;16.90;6.93;;;8.60;99.90;;;;;;4936721;28;20510;-81
2023/10/16 02:48:30;;;;;;;16.92;7.30;;;8.50;99.90;;;;;;4958711;28;20502;-77
2023/10/16 02:50:59;;;;;;;18.85;7.75;;;8.50;99.90;;;;;;4954830;28;20049;-81
2023/10/16 02:53:27;;;;;;;14.90;6.40;;;8.40;99.90;;;;;;4958388;28;20253;-85
2023/10/16 02:55:58;;;;;;;19.45;7.63;;;8.40;99.90;;;;;;4940292;28;20023;-80
2023/10/16 02:58:30;;;;;;;17.73;7.93;;;8.40;99.90;;;;;;4965124;28;20031;-82
2023/10/16 03:00:57;;;;;;;16.48;7.32;;;8.40;99.90;;;;;;4955768;28;20399;-83
2023/10/16 03:03:24;;;;;;;19.95;7.78;;;8.50;99.90;;;;;;4955977;28;20114;-84
2023/10/16 03:05:55;;;;;;;15.98;7.85;;;8.50;99.90;;;;;;4957375;28;20027;-83
2023/10/16 03:08:31;;;;;;;21.25;8.20;;;8.40;99.90;;;;;;4954480;28;20138;-83
2023/10/16 03:11:05;;;;;;;11.32;5.97;;;8.30;99.90;;;;;;4952208;28;20395;-86
2023/10/16 03:13:35;;;;;;;16.40;6.00;;;8.30;99.90;;;;;;4954835;28;20497;-78
2023/10/16 03:16:15;;;;;;;9.27;4.78;;;8.30;99.90;;;;;;4960425;28;20031;-78
2023/10/16 03:18:43;;;;;;;12.60;5.43;;;8.10;99.90;;;;;;4955070;28;20035;-85
2023/10/16 03:23:43;;;;;;;10.63;4.68;;;8.00;99.90;;;;;;4954003;28;20066;-85
2023/10/16 03:26:20;;;;;;;14.27;5.00;;;8.00;99.90;;;;;;4974724;28;20046;-85
2023/10/16 03:28:48;;;;;;;11.82;5.97;;;8.00;99.90;;;;;;4977831;28;20022;-86
2023/10/16 03:31:14;;;;;;;11.63;5.25;;;8.00;99.90;;;;;;4976822;28;20015;-86
2023/10/16 03:33:41;;;;;;;9.85;5.18;;;7.90;99.90;;;;;;4973857;28;20506;-84
2023/10/16 03:36:09;;;;;;;14.10;5.32;;;7.90;99.90;;;;;;4971851;28;20102;-81
2023/10/16 03:38:41;;;;;;;13.25;6.13;;;7.90;99.90;;;;;;4978153;28;20022;-84
2023/10/16 03:41:27;;;;;;;9.38;5.10;;;7.90;99.90;;;;;;4973674;28;20042;-84
2023/10/16 03:43:58;;;;;;;9.23;5.25;;;7.90;99.90;;;;;;4973778;28;20093;-87
2023/10/16 03:46:26;;;;;;;9.25;5.03;;;7.90;99.90;;;;;;4971827;28;20121;-81
2023/10/16 03:48:53;;;;;;;11.98;5.28;;;7.80;99.90;;;;;;4974534;28;20023;-87
2023/10/16 03:51:18;;;;;;;11.60;5.68;;;7.80;99.90;;;;;;4977046;28;20491;-82
2023/10/16 03:53:45;;;;;;;10.93;5.20;;;7.80;99.90;;;;;;4976554;28;20113;-84
2023/10/16 03:56:13;;;;;;;9.32;5.45;;;7.70;99.90;;;;;;4973449;28;20034;-86
2023/10/16 03:58:44;;;;;;;13.55;5.60;;;7.70;99.90;;;;;;4984373;28;20028;-85
2023/10/16 04:01:17;;;;;;;11.38;5.20;;;7.70;99.90;;;;;;4985355;28;20474;-81
2023/10/16 04:03:50;;;;;;;10.57;5.22;;;7.70;99.90;;;;;;4974058;28;20038;-77
2023/10/16 04:06:21;;;;;;;12.80;6.97;;;7.70;99.90;;;;;;4976043;28;20064;-78
2023/10/16 04:08:47;;;;;;;13.95;7.00;;;7.60;99.90;;;;;;4972558;28;20034;-81
2023/10/16 04:11:14;;;;;;;13.90;6.10;;;7.70;99.90;;;;;;4975010;28;20030;-84
2023/10/16 04:13:50;;;;;;;10.43;5.88;;;7.60;99.90;;;;;;4987019;28;20031;-84
2023/10/16 04:19:35;;;;;;;10.43;5.80;;;7.70;99.90;;;;;;4986558;28;20486;-80
2023/10/16 04:22:09;;;;;;;11.30;5.40;;;7.70;99.90;;;;;;4982824;28;20117;-77
2023/10/16 04:24:44;;;;;;;8.43;5.15;;;7.60;99.90;;;;;;4981904;28;20046;-81
2023/10/16 04:32:20;;;;;;;10.43;5.90;;;7.70;99.90;;;;;;4991971;28;20027;-81
2023/10/16 04:34:52;;;;;;;10.75;6.30;;;7.70;99.90;;;;;;4990752;28;20072;-81
2023/10/16 04:37:40;;;;;;;12.10;5.82;;;7.70;99.90;;;;;;4985269;28;20030;-86
2023/10/16 05:03:24;;;;;;;11.82;6.30;;;7.50;99.90;;;;;;4995097;28;20050;-85
2023/10/16 05:16:36;;;;;;;12.95;7.63;;;7.60;99.90;;;;;;4995178;28;20066;-77
2023/10/16 06:16:22;;;;;;;16.70;10.00;;;8.90;99.90;;;;;;4972527;28;20034;-84
2023/10/16 06:18:48;;;;;;;17.50;10.63;;;8.90;99.90;;;;;;4967082;28;20387;-83
2023/10/16 06:21:15;;;;;;;14.90;9.25;;;9.10;99.90;;;;;;4957923;28;20350;-83
2023/10/16 06:23:42;;;;;;;12.50;7.40;;;9.10;99.90;;;;;;4954472;28;20487;-83
2023/10/16 06:26:09;;;;;;;14.27;8.57;;;9.10;99.90;;;;;;4954776;28;20055;-80
2023/10/16 06:28:39;;;;;;;13.00;7.47;;;9.20;99.90;;;;;;4956911;28;20066;-78
2023/10/16 06:31:05;;;;;;;12.00;6.95;;;9.20;99.90;;;;;;4958430;28;20043;-81
2023/10/16 06:33:31;;;;;;;10.00;6.03;;;9.20;99.90;;;;;;4955182;28;20031;-81
2023/10/16 06:35:57;;;;;;;10.85;6.95;;;9.40;99.90;;;;;;4959903;28;20034;-80
2023/10/16 06:38:24;;;;;;;13.77;6.40;;;9.50;99.90;;;;;;4993586;28;20392;-83
2023/10/16 06:40:55;;;;;;;12.82;5.85;;;9.60;99.90;;;;;;4991896;28;20042;-84
2023/10/16 06:43:25;;;;;;;10.02;4.75;;;9.70;99.90;;;;;;4993701;28;20033;-83
2023/10/16 06:45:58;;;;;;;14.15;8.43;;;9.70;99.90;;;;;;4993244;28;20061;-85
2023/10/16 06:48:28;;;;;;;8.95;5.35;;;10.00;99.90;;;;;;4993591;28;20042;-81
2023/10/16 06:50:54;;;;;;;12.50;6.05;;;10.20;99.90;;;;;;4992655;28;20033;-80
2023/10/16 06:53:23;;;;;;;12.00;6.10;;;10.30;99.90;;;;;;4992977;28;20041;-83
2023/10/16 06:55:52;;;;;;;10.82;5.97;;;10.20;99.90;;;;;;4992989;28;20117;-78
2023/10/16 06:58:21;;;;;;;11.07;5.00;;;10.40;99.90;;;;;;4992848;28;20018;-82
2023/10/16 07:00:57;;;;;;;7.35;3.90;;;10.30;99.90;;;;;;4993096;28;20482;-83
2023/10/16 07:03:23;;;;;;;8.18;4.30;;;10.50;99.90;;;;;;4993046;28;20088;-84
2023/10/16 07:05:48;;;;;;;7.70;3.85;;;10.60;99.90;;;;;;4992986;28;20473;-77
2023/10/16 07:08:19;;;;;;;9.02;4.10;;;10.60;99.90;;;;;;4992985;28;20477;-82
2023/10/16 07:10:49;;;;;;;7.10;3.60;;;10.60;99.90;;;;;;4992622;28;20105;-81
2023/10/16 07:13:29;;;;;;;4.53;3.00;;;10.70;99.90;;;;;;4992326;28;20486;-77
2023/10/16 07:15:56;;;;;;;5.05;3.05;;;10.60;99.90;;;;;;4992875;28;20030;-80
2023/10/16 07:18:25;;;;;;;5.40;2.88;;;10.50;99.90;;;;;;4992931;28;20026;-83
2023/10/16 07:20:59;;;;;;;6.03;3.35;;;10.60;99.90;;;;;;4992082;28;20104;-82
2023/10/16 07:23:35;;;;;;;8.95;4.03;;;10.70;99.90;;;;;;4992642;28;20046;-79
2023/10/16 07:26:02;;;;;;;13.85;4.70;;;10.80;99.90;;;;;;4980414;28;20074;-79
2023/10/16 07:28:29;;;;;;;14.10;5.28;;;10.60;99.90;;;;;;4992480;28;20030;-82
2023/10/16 07:31:05;;;;;;;12.73;4.63;;;10.50;99.90;;;;;;4992644;28;20026;-82
2023/10/16 07:33:32;;;;;;;11.60;4.35;;;10.50;99.90;;;;;;4992792;28;20041;-81
2023/10/16 07:36:01;;;;;;;12.63;5.00;;;10.60;99.90;;;;;;4992231;28;20485;-82
2023/10/16 07:38:28;;;;;;;11.32;5.47;;;10.60;99.90;;;;;;4992210;28;20029;-84
2023/10/16 07:40:56;;;;;;;10.93;4.95;;;10.60;99.90;;;;;;4975290;28;20058;-83
2023/10/16 07:43:32;;;;;;;17.27;5.97;;;10.70;99.90;;;;;;4991636;28;20034;-79
2023/10/16 07:48:43;;;;;;;13.80;5.28;;;10.60;99.90;;;;;;4984788;28;20031;-80
2023/10/16 07:51:15;;;;;;;13.57;4.88;;;10.70;99.90;;;;;;4992506;28;20529;-82
2023/10/16 07:53:41;;;;;;;13.60;4.88;;;10.80;99.90;;;;;;4991815;28;20034;-80
2023/10/16 07:56:29;;;;;;;11.48;3.95;;;10.70;99.90;;;;;;4991658;28;20037;-81
2023/10/16 07:58:56;;;;;;;7.07;3.20;;;10.90;99.90;;;;;;4984024;28;20049;-77
2023/10/16 08:04:35;;;;;;;6.18;2.85;;;11.00;99.90;;;;;;4932205;29;20546;-84
2023/10/16 08:07:20;;;;;;;8.85;2.75;;;11.10;99.90;;;;;;4932598;29;20043;-77
2023/10/16 08:09:49;;;;;;;5.50;2.20;;;11.10;99.90;;;;;;4916508;29;20035;-80
2023/10/16 08:14:59;;;;;;;7.18;2.88;;;11.10;99.90;;;;;;4932307;29;20040;-79
2023/10/16 08:17:26;;;;;;;3.60;2.45;;;11.10;99.90;;;;;;4931660;29;20035;-83
2023/10/16 08:19:52;;;;;;;4.75;2.85;;;11.10;99.90;;;;;;4932120;29;20121;-82
2023/10/16 08:22:19;;;;;;;7.90;2.92;;;11.20;99.90;;;;;;4931518;29;20079;-84
2023/10/16 08:24:57;;;;;;;4.68;2.63;;;11.30;99.90;;;;;;4931710;29;20104;-83
2023/10/16 08:30:19;;;;;;;6.03;2.40;;;11.40;99.90;;;;;;4935590;29;20046;-78
2023/10/16 08:32:53;;;;;;;5.63;2.55;;;11.50;99.90;;;;;;4935306;29;20483;-81
2023/10/16 08:35:21;;;;;;;3.33;2.17;;;11.60;99.90;;;;;;4967187;28;20042;-84
2023/10/16 08:37:57;;;;;;;3.08;1.98;;;11.80;99.90;;;;;;4995322;28;20022;-85
2023/10/16 08:40:32;;;;;;;4.90;1.85;;;11.30;99.90;;;;;;4995325;28;20034;-85
2023/10/16 08:43:00;;;;;;;4.55;1.95;;;11.70;99.90;;;;;;4995461;28;20561;-79
2023/10/16 08:45:32;;;;;;;2.65;1.52;;;11.80;99.90;;;;;;4995574;28;20146;-83
2023/10/16 08:47:59;;;;;;;8.23;2.78;;;11.90;99.90;;;;;;4995107;28;20038;-82
2023/10/16 08:50:41;;;;;;;3.30;2.10;;;12.10;99.90;;;;;;4995171;28;20073;-80
2023/10/16 08:53:17;;;;;;;4.37;2.50;;;12.20;99.90;;;;;;4994310;28;20057;-82
2023/10/16 08:55:44;;;;;;;7.15;2.88;;;12.50;99.90;;;;;;4995452;28;20026;-78
2023/10/16 08:58:12;;;;;;;6.03;2.80;;;12.60;99.90;;;;;;4995589;28;20454;-82
2023/10/16 09:00:38;;;;;;;9.45;3.13;;;12.50;99.90;;;;;;4995362;28;20031;-81
2023/10/16 09:03:06;;;;;;;5.10;2.33;;;12.70;99.90;;;;;;4986884;28;20564;-80
2023/10/16 09:05:31;;;;;;;5.25;2.35;;;12.80;99.90;;;;;;4985365;28;20449;-83
2023/10/16 09:07:57;;;;;;;7.60;2.78;;;12.90;99.90;;;;;;4993549;28;20057;-78
2023/10/16 09:10:23;;;;;;;4.38;2.42;;;13.00;99.90;;;;;;4994518;28;20026;-81
2023/10/16 09:13:12;;;;;;;3.92;2.30;;;13.00;99.90;;;;;;4995213;28;20360;-78
2023/10/16 09:15:45;;;;;;;5.40;2.20;;;13.20;99.90;;;;;;4994693;28;20050;-80
2023/10/16 09:18:14;;;;;;;8.57;3.92;;;13.20;99.90;;;;;;4994510;28;20073;-81
2023/10/16 09:20:41;;;;;;;5.93;2.70;;;13.10;99.90;;;;;;4994607;28;20493;-83
2023/10/16 09:23:13;;;;;;;7.43;2.67;;;13.00;99.90;;;;;;4994494;28;20097;-82
2023/10/16 09:25:46;;;;;;;6.72;2.80;;;13.10;99.90;;;;;;4993687;28;20121;-80
2023/10/16 09:28:22;;;;;;;10.13;3.35;;;13.20;99.90;;;;;;4986838;28;20026;-84
2023/10/16 09:30:49;;;;;;;12.23;3.22;;;13.20;98.30;;;;;;4981582;28;20026;-82
2023/10/16 09:33:15;;;;;;;8.52;3.22;;;12.90;99.90;;;;;;4994326;28;20402;-76
2023/10/16 09:35:44;;;;;;;14.20;4.60;;;13.10;99.90;;;;;;4981656;28;20510;-81
2023/10/16 09:38:17;;;;;;;10.85;3.97;;;13.30;99.90;;;;;;4993870;28;20113;-81
2023/10/16 09:49:11;;;;;;;5.68;2.85;;;13.30;99.50;;;;;;4992834;28;20085;-80
2023/10/16 09:51:39;;;;;;;6.10;2.58;;;13.30;97.80;;;;;;4992034;28;20041;-80
2023/10/16 09:54:09;;;;;;;9.05;3.40;;;13.40;99.70;;;;;;4994276;28;20406;-80
2023/10/16 09:56:39;;;;;;;12.82;3.88;;;13.60;99.40;;;;;;4994075;28;20029;-82
2023/10/16 09:59:12;;;;;;;8.20;4.07;;;13.60;98.40;;;;;;4994024;28;20030;-80
2023/10/16 10:01:45;;;;;;;5.88;3.13;;;13.50;98.20;;;;;;4992265;28;20402;-79
2023/10/16 10:04:11;;;;;;;;;;;;;;;;;;4994142;28;20022;-83
2023/10/16 10:06:40;;;;;;;7.38;3.60;;;13.80;98.20;;;;;;4993083;28;19909;-77
2023/10/16 10:12:23;;;;;;;5.80;3.20;;;14.00;97.60;;;;;;4994161;28;20023;-83
2023/10/16 10:15:12;;;;;;;7.32;2.88;;;13.90;95.80;;;;;;4992282;28;20114;-82
2023/10/16 10:17:40;;;;;;;9.07;3.30;;;13.60;96.00;;;;;;4993338;28;20261;-83
2023/10/16 10:23:04;;;;;;;4.10;2.25;;;13.50;95.40;;;;;;4923965;29;20048;-82
2023/10/16 10:25:37;;;;;;;6.93;2.92;;;13.70;95.90;;;;;;4933544;29;20450;-82
2023/10/16 10:28:22;;;;;;;5.10;2.28;;;13.70;96.50;;;;;;4933378;29;20050;-82
2023/10/16 10:30:49;;;;;;;6.32;2.60;;;13.40;96.80;;;;;;4933151;29;20086;-85
2023/10/16 10:33:32;;;;;;;9.35;2.95;;;13.30;97.30;;;;;;4933662;29;20071;-77
2023/10/16 10:36:29;;;;;;;7.15;2.85;;;13.10;97.10;;;;;;4933393;29;20448;-81
2023/10/16 10:41:58;;;;;;;4.30;2.50;;;13.80;96.90;;;;;;4931873;29;20444;-81
2023/10/16 10:44:35;;;;;;;5.50;2.38;;;13.80;97.00;;;;;;4917237;29;20028;-81
2023/10/16 10:47:23;;;;;;;4.90;2.50;;;14.10;95.40;;;;;;4930839;29;20046;-84
2023/10/16 10:50:12;;;;;;;3.65;2.35;;;14.30;94.70;;;;;;4931942;29;20028;-81
2023/10/16 10:52:38;;;;;;;6.72;2.45;;;14.10;94.80;;;;;;4932582;28;20070;-80
2023/10/16 10:55:18;;;;;;;5.88;2.80;;;14.40;95.30;;;;;;4932701;29;20042;-81
2023/10/16 10:57:55;;;;;;;4.88;2.67;;;14.70;94.90;;;;;;4932901;29;20111;-82
2023/10/16 11:05:31;;;;;;;3.53;2.17;;;14.90;95.10;;;;;;4973178;28;20038;-78
2023/10/16 11:10:44;;;;;;;4.90;2.45;;;14.60;93.50;;;;;;4972652;28;20026;-80
2023/10/16 11:13:12;;;;;;;5.13;2.33;;;14.50;92.10;;;;;;4972787;28;20239;-81
2023/10/16 11:15:46;;;;;;;4.60;2.70;;;14.60;92.60;;;;;;4973415;28;20053;-81
2023/10/16 11:18:21;;;;;;;8.68;2.40;;;14.40;93.20;;;;;;4972273;28;20035;-78
2023/10/16 11:20:54;;;;;;;5.03;2.00;;;14.60;93.00;;;;;;4970244;28;20471;-77
2023/10/16 11:23:21;;;;;;;3.83;2.17;;;14.70;92.40;;;;;;4972771;28;20039;-80
2023/10/16 11:25:51;;;;;;;3.35;2.38;;;14.80;93.00;;;;;;4963493;28;20047;-80
2023/10/16 11:28:31;;;;;;;5.80;2.60;;;14.60;91.90;;;;;;4970145;28;20078;-81
2023/10/16 11:30:58;;;;;;;8.15;2.53;;;14.70;92.70;;;;;;4972844;28;20474;-82
2023/10/16 11:33:45;;;;;;;4.32;2.58;;;14.60;91.90;;;;;;4972384;28;20030;-77
2023/10/16 11:36:14;;;;;;;3.35;2.20;;;14.60;93.00;;;;;;4965078;28;20027;-80
2023/10/16 11:38:43;;;;;;;7.47;2.65;;;14.40;92.50;;;;;;4972842;28;20030;-82
2023/10/16 11:41:16;;;;;;;2.70;1.73;;;14.50;93.10;;;;;;4975610;28;20037;-81
2023/10/16 11:43:51;;;;;;;;;;;14.80;92.70;;;;;;4954775;28;20372;-80
2023/10/16 11:51:48;;;;;;;3.70;1.55;;;14.90;91.70;;;;;;4955665;28;20067;-80
2023/10/16 11:54:23;;;;;;;6.43;2.47;;;14.80;91.40;;;;;;4972505;28;20031;-81
2023/10/16 11:56:53;;;;;;;4.78;2.28;;;14.80;91.60;;;;;;4972733;28;20046;-77
2023/10/16 11:59:24;;;;;;;6.10;2.20;;;14.80;91.40;;;;;;4960653;28;20063;-78
2023/10/16 12:01:52;;;;;;;7.72;2.28;;;14.60;91.30;;;;;;4967113;28;20046;-82
2023/10/16 12:04:22;;;;;;;3.53;2.05;;;14.60;90.10;;;;;;4954969;28;20106;-77
2023/10/16 12:06:48;;;;;;;5.03;2.10;;;14.70;90.60;;;;;;4957140;28;20027;-77
2023/10/16 12:09:20;;;;;;;4.30;1.83;;;14.70;90.10;;;;;;4962646;28;20119;-80
2023/10/16 12:11:50;;;;;;;4.63;2.10;;;14.70;90.80;;;;;;4961200;28;20024;-82
2023/10/16 12:14:18;;;;;;;3.28;2.17;;;14.60;89.90;;;;;;4961072;28;20055;-78
2023/10/16 12:16:46;;;;;;;3.05;1.42;;;14.50;89.10;;;;;;4958990;28;20490;-77
2023/10/16 12:19:16;;;;;;;4.53;2.08;;;14.40;89.90;;;;;;4954706;28;20110;-78
2023/10/16 12:21:50;;;;;;;2.78;1.73;;;14.30;90.20;;;;;;4976650;28;20030;-83
2023/10/16 12:24:16;;;;;;;3.17;1.88;;;14.30;89.60;;;;;;4976295;28;20042;-85
2023/10/16 12:26:42;;;;;;;4.75;1.80;;;14.30;88.20;;;;;;4976791;28;20511;-83
2023/10/16 12:29:09;;;;;;;7.07;2.42;;;14.30;89.00;;;;;;4976340;28;20037;-83
2023/10/16 12:31:35;;;;;;;2.45;2.00;;;14.40;90.20;;;;;;4976596;28;20182;-84
2023/10/16 12:34:02;;;;;;;4.20;2.20;;;14.40;89.10;;;;;;4976326;28;20023;-83
2023/10/16 12:36:30;;;;;;;4.88;1.80;;;14.30;89.00;;;;;;4976422;28;20055;-84
2023/10/16 12:38:56;;;;;;;3.15;1.85;;;14.50;87.90;;;;;;4976119;28;20027;-83
2023/10/16 12:41:23;;;;;;;4.45;2.17;;;14.50;86.20;;;;;;4975912;28;20501;-83
2023/10/16 12:43:50;;;;;;;3.78;1.80;;;14.40;85.20;;;;;;4976166;28;20034;-80
2023/10/16 12:46:16;;;;;;;3.33;1.67;;;14.40;86.80;;;;;;4976127;28;20381;-82
2023/10/16 12:48:44;;;;;;;8.35;2.45;;;14.40;87.00;;;;;;4975924;28;20034;-79
2023/10/16 12:51:10;;;;;;;2.78;1.75;;;14.40;84.90;;;;;;4968015;28;20030;-83
2023/10/16 12:53:41;;;;;;;2.30;1.60;;;14.40;86.00;;;;;;4976020;28;20035;-83
2023/10/16 12:56:07;;;;;;;3.33;1.60;;;14.50;89.20;;;;;;4975694;28;20038;-82
2023/10/16 12:58:34;;;;;;;5.80;1.70;;;14.50;87.70;;;;;;4975962;28;20022;-79
2023/10/16 13:01:04;;;;;;;5.88;1.90;;;14.50;88.20;;;;;;4975721;28;20066;-83
2023/10/16 13:03:33;;;;;;;3.53;1.80;;;14.60;89.10;;;;;;4975850;28;20037;-83
2023/10/16 13:06:00;;;;;;;3.45;1.77;;;14.60;88.50;;;;;;4975640;28;20031;-81
2023/10/16 13:08:26;;;;;;;3.40;1.65;;;14.60;87.60;;;;;;4975523;28;20054;-78
2023/10/16 13:10:52;;;;;;;2.25;1.35;;;14.70;88.40;;;;;;4975905;28;20470;-82
2023/10/16 13:13:21;;;;;;;2.47;1.30;;;14.70;84.70;;;;;;4974930;28;20034;-81
2023/10/16 13:15:51;;;;;;;3.17;1.33;;;14.60;83.40;;;;;;4975780;28;20074;-80
2023/10/16 13:18:27;;;;;;;5.10;1.90;;;14.80;86.00;;;;;;4958297;28;20027;-82
2023/10/16 13:20:57;;;;;;;13.35;6.03;;;14.80;85.40;;;;;;4975312;28;20471;-82
2023/10/16 13:23:26;;;;;;;5.57;2.15;;;14.60;88.60;;;;;;4975975;28;20182;-82
2023/10/16 13:25:56;;;;;;;5.03;2.03;;;14.60;87.90;;;;;;4975024;28;20375;-78
2023/10/16 13:28:23;;;;;;;4.50;2.00;;;14.60;86.10;;;;;;4975446;28;20030;-81
2023/10/16 13:30:51;;;;;;;3.03;1.67;;;14.60;85.30;;;;;;4957369;28;20031;-85
2023/10/16 13:33:18;;;;;;;4.82;1.73;;;14.60;87.20;;;;;;4975107;28;20031;-83
2023/10/16 13:35:44;;;;;;;5.88;1.77;;;14.60;86.00;;;;;;4975240;28;20019;-82
2023/10/16 13:38:10;;;;;;;3.33;1.85;;;14.70;86.00;;;;;;4974857;28;20465;-80
2023/10/16 13:40:36;;;;;;;3.47;1.98;;;14.70;86.30;;;;;;4975027;28;20058;-83
2023/10/16 13:43:02;;;;;;;10.07;2.45;;;14.70;86.70;;;;;;4975053;28;20514;-81
2023/10/16 13:45:28;;;;;;;3.85;2.05;;;14.70;87.00;;;;;;4975570;28;20026;-76
2023/10/16 13:47:55;;;;;;;5.50;1.90;;;14.70;88.10;;;;;;4976955;28;20436;-80
2023/10/16 13:50:24;;;;;;;3.42;1.63;;;14.80;87.80;;;;;;4968015;28;20082;-77
2023/10/16 13:52:52;;;;;;;3.97;2.13;;;14.80;86.20;;;;;;4974931;28;20046;-81
2023/10/16 13:55:20;;;;;;;2.83;1.73;;;14.70;85.10;;;;;;4974611;28;20027;-78
2023/10/16 13:57:48;;;;;;;3.50;2.13;;;14.70;87.40;;;;;;4975032;28;20033;-80
2023/10/16 14:00:31;;;;;;;4.75;1.80;;;14.70;85.10;;;;;;4974606;28;20027;-80
2023/10/16 14:03:04;;;;;;;;;;;14.60;83.50;;;;;;4974974;28;20038;-78
2023/10/16 14:05:31;;;;;;;;;;;14.50;82.70;;;;;;4973263;28;20266;-80
2023/10/16 14:08:03;;;;;;;5.18;2.72;;;14.40;85.40;;;;;;4971881;28;19910;-80
2023/10/16 14:10:29;;;;;;;5.97;2.55;;;14.40;88.60;;;;;;4971956;28;20109;-78
2023/10/16 14:13:10;;;;;;;3.70;2.08;;;14.40;86.40;;;;;;4954057;28;20110;-80
2023/10/16 14:15:41;;;;;;;4.65;1.73;;;14.40;86.00;;;;;;4969889;28;20027;-79
2023/10/16 14:18:14;;;;;;;2.25;1.65;;;14.40;84.90;;;;;;4965926;28;20031;-80
2023/10/16 14:20:45;;;;;;;3.25;1.67;;;14.30;85.00;;;;;;4967323;28;20023;-84
2023/10/16 14:23:15;;;;;;;7.68;2.40;;;14.20;84.40;;;;;;4964030;28;20047;-79
2023/10/16 14:25:46;;;;;;;5.63;2.30;;;14.20;86.60;;;;;;4969126;28;20398;-81
2023/10/16 14:28:28;;;;;;;2.97;1.83;;;14.20;86.10;;;;;;4973074;28;20398;-81
2023/10/16 14:30:58;;;;;;;6.60;2.42;;;14.10;88.70;;;;;;4973033;28;20386;-81
2023/10/16 14:33:28;;;;;;;3.63;2.22;;;14.10;88.40;;;;;;4974161;28;20038;-81
2023/10/16 14:35:58;;;;;;;7.03;2.47;;;14.10;87.60;;;;;;4974160;28;20026;-77
2023/10/16 14:38:28;;;;;;;6.43;3.20;;;14.00;87.70;;;;;;4974084;28;20427;-82
2023/10/16 14:41:08;;;;;;;9.27;3.75;;;14.00;86.90;;;;;;4973898;28;20387;-78
2023/10/16 14:43:36;;;;;;;8.82;3.97;;;13.90;86.80;;;;;;4974042;28;20071;-82
2023/10/16 14:46:17;;;;;;;5.68;2.35;;;13.90;88.10;;;;;;5093216;27;1733839;-79
2023/10/16 14:48:43;;;;;;;8.73;4.82;;;13.80;85.60;;;;;;5115802;28;20138;-79
2023/10/16 14:51:14;;;;;;;9.40;3.40;;;13.80;87.00;;;;;;5129646;28;20028;-80
2023/10/16 14:53:41;;;;;;;12.98;4.50;;;13.80;87.40;;;;;;5130038;27;20028;-76
2023/10/16 14:56:07;;;;;;;14.30;4.68;;;13.70;86.40;;;;;;5129977;27;20066;-79
2023/10/16 14:58:34;;;;;;;20.23;10.60;;;13.70;86.40;;;;;;5117098;28;20134;-77
2023/10/16 15:01:09;;;;;;;14.02;7.00;;;13.60;86.20;;;;;;5123329;28;20020;-76
2023/10/16 15:03:38;;;;;;;10.00;5.50;;;13.60;87.40;;;;;;5109434;28;20089;-79
2023/10/16 15:06:08;;;;;;;8.75;5.38;;;13.50;87.60;;;;;;5109279;28;20534;-77
2023/10/16 15:08:35;;;;;;;14.93;6.00;;;13.50;88.60;;;;;;5108058;28;20028;-77
2023/10/16 15:11:01;;;;;;;15.90;6.72;;;13.40;87.60;;;;;;5127060;28;20035;-78
2023/10/16 15:13:29;;;;;;;18.55;8.80;;;13.40;88.10;;;;;;5118860;28;20028;-80
2023/10/16 15:15:58;;;;;;;16.60;7.15;;;13.40;88.20;;;;;;5108847;28;20031;-78
2023/10/16 15:18:24;;;;;;;17.25;8.18;;;13.30;88.90;;;;;;5109467;28;20035;-80
2023/10/16 15:20:50;;;;;;;13.60;6.80;;;13.20;89.60;;;;;;5113702;28;20141;-81
2023/10/16 15:23:16;;;;;;;23.15;12.73;;;13.20;90.10;;;;;;5116904;28;20028;-79
2023/10/16 15:25:43;;;;;;;20.85;11.48;;;13.10;90.50;;;;;;5122344;28;20031;-78
2023/10/16 15:28:09;;;;;;;19.38;10.48;;;13.00;91.50;;;;;;5120889;28;20523;-82